sensor_id;sensor_type;location;lat;lon;timestamp;temperature;humidity
73576;DHT22;61859;49.204;8.140;2022-09-09T00:00:25;15.30;99.20
73576;DHT22;61859;49.204;8.140;2022-09-09T00:05:52;15.30;99.30
73576;DHT22;61859;49.204;8.140;2022-09-09T00:08:27;15.30;99.40
73576;DHT22;61859;49.204;8.140;2022-09-09T00:10:58;15.40;99.40
73576;DHT22;61859;49.204;8.140;2022-09-09T00:13:41;15.30;99.40
73576;DHT22;61859;49.204;8.140;2022-09-09T00:16:17;15.30;99.40
73576;DHT22;61859;49.204;8.140;2022-09-09T00:21:34;15.30;99.50
73576;DHT22;61859;49.204;8.140;2022-09-09T00:24:08;15.40;99.70
73576;DHT22;61859;49.204;8.140;2022-09-09T00:26:43;15.50;99.00
73576;DHT22;61859;49.204;8.140;2022-09-09T00:29:24;15.40;99.60
73576;DHT22;61859;49.204;8.140;2022-09-09T00:31:57;15.40;99.10
73576;DHT22;61859;49.204;8.140;2022-09-09T00:34:26;15.50;98.90
73576;DHT22;61859;49.204;8.140;2022-09-09T00:36:53;15.40;99.30
73576;DHT22;61859;49.204;8.140;2022-09-09T00:39:41;15.40;99.60
73576;DHT22;61859;49.204;8.140;2022-09-09T00:42:17;15.40;99.00
73576;DHT22;61859;49.204;8.140;2022-09-09T00:45:25;15.40;99.60
73576;DHT22;61859;49.204;8.140;2022-09-09T00:47:54;15.40;99.10
73576;DHT22;61859;49.204;8.140;2022-09-09T00:50:35;15.40;99.10
73576;DHT22;61859;49.204;8.140;2022-09-09T00:56:12;15.50;99.00
73576;DHT22;61859;49.204;8.140;2022-09-09T00:58:43;15.50;98.80
73576;DHT22;61859;49.204;8.140;2022-09-09T01:01:11;15.50;98.60
73576;DHT22;61859;49.204;8.140;2022-09-09T01:03:49;15.40;99.10
73576;DHT22;61859;49.204;8.140;2022-09-09T01:06:32;15.40;99.20
73576;DHT22;61859;49.204;8.140;2022-09-09T01:16:59;15.40;99.00
73576;DHT22;61859;49.204;8.140;2022-09-09T01:19:57;15.40;99.60
73576;DHT22;61859;49.204;8.140;2022-09-09T01:22:34;15.30;99.60
73576;DHT22;61859;49.204;8.140;2022-09-09T01:28:10;15.50;99.40
73576;DHT22;61859;49.204;8.140;2022-09-09T01:30:39;15.50;99.40
73576;DHT22;61859;49.204;8.140;2022-09-09T01:33:13;15.50;99.40
73576;DHT22;61859;49.204;8.140;2022-09-09T01:35:50;15.40;99.40
73576;DHT22;61859;49.204;8.140;2022-09-09T01:38:19;15.60;99.60
73576;DHT22;61859;49.204;8.140;2022-09-09T01:40:46;15.60;99.50
73576;DHT22;61859;49.204;8.140;2022-09-09T01:43:11;15.60;99.60
73576;DHT22;61859;49.204;8.140;2022-09-09T01:45:39;15.50;99.60
73576;DHT22;61859;49.204;8.140;2022-09-09T01:48:06;15.50;99.20
73576;DHT22;61859;49.204;8.140;2022-09-09T01:50:31;15.60;99.10
73576;DHT22;61859;49.204;8.140;2022-09-09T01:52:59;15.60;98.90
73576;DHT22;61859;49.204;8.140;2022-09-09T01:55:33;15.60;99.00
73576;DHT22;61859;49.204;8.140;2022-09-09T02:00:46;15.70;98.50
73576;DHT22;61859;49.204;8.140;2022-09-09T02:03:27;15.70;98.30
73576;DHT22;61859;49.204;8.140;2022-09-09T02:06:10;15.50;98.30
73576;DHT22;61859;49.204;8.140;2022-09-09T02:08:43;15.60;98.20
73576;DHT22;61859;49.204;8.140;2022-09-09T02:11:13;15.60;98.30
73576;DHT22;61859;49.204;8.140;2022-09-09T02:13:40;15.60;98.10
73576;DHT22;61859;49.204;8.140;2022-09-09T02:16:26;15.60;98.20
73576;DHT22;61859;49.204;8.140;2022-09-09T02:19:01;15.60;98.30
73576;DHT22;61859;49.204;8.140;2022-09-09T02:21:30;15.60;98.40
73576;DHT22;61859;49.204;8.140;2022-09-09T02:23:59;15.60;98.50
73576;DHT22;61859;49.204;8.140;2022-09-09T02:26:30;15.60;98.40
73576;DHT22;61859;49.204;8.140;2022-09-09T02:28:57;15.50;98.40
73576;DHT22;61859;49.204;8.140;2022-09-09T02:31:25;15.50;98.30
73576;DHT22;61859;49.204;8.140;2022-09-09T02:33:57;15.50;98.60
73576;DHT22;61859;49.204;8.140;2022-09-09T02:36:26;15.40;98.70
73576;DHT22;61859;49.204;8.140;2022-09-09T02:38:52;15.40;98.50
73576;DHT22;61859;49.204;8.140;2022-09-09T02:41:33;15.40;99.30
73576;DHT22;61859;49.204;8.140;2022-09-09T02:43:59;15.40;99.30
73576;DHT22;61859;49.204;8.140;2022-09-09T02:46:45;15.40;99.40
73576;DHT22;61859;49.204;8.140;2022-09-09T02:52:08;15.30;99.40
73576;DHT22;61859;49.204;8.140;2022-09-09T02:54:37;15.30;99.60
73576;DHT22;61859;49.204;8.140;2022-09-09T02:59:44;15.20;99.60
73576;DHT22;61859;49.204;8.140;2022-09-09T03:02:10;15.20;99.60
73576;DHT22;61859;49.204;8.140;2022-09-09T03:04:37;15.30;99.70
73576;DHT22;61859;49.204;8.140;2022-09-09T03:07:03;15.30;99.50
73576;DHT22;61859;49.204;8.140;2022-09-09T03:09:29;15.30;99.70
73576;DHT22;61859;49.204;8.140;2022-09-09T03:11:55;15.20;99.80
73576;DHT22;61859;49.204;8.140;2022-09-09T03:14:21;15.30;99.70
73576;DHT22;61859;49.204;8.140;2022-09-09T03:16:50;15.30;99.30
73576;DHT22;61859;49.204;8.140;2022-09-09T03:19:15;15.30;99.20
73576;DHT22;61859;49.204;8.140;2022-09-09T03:21:41;15.20;99.20
73576;DHT22;61859;49.204;8.140;2022-09-09T03:24:07;15.30;99.00
73576;DHT22;61859;49.204;8.140;2022-09-09T03:26:33;15.30;98.60
73576;DHT22;61859;49.204;8.140;2022-09-09T03:28:58;15.30;98.60
73576;DHT22;61859;49.204;8.140;2022-09-09T03:31:25;15.30;98.40
73576;DHT22;61859;49.204;8.140;2022-09-09T03:33:51;15.20;98.40
73576;DHT22;61859;49.204;8.140;2022-09-09T03:36:17;15.30;98.50
73576;DHT22;61859;49.204;8.140;2022-09-09T03:38:42;15.30;98.70
73576;DHT22;61859;49.204;8.140;2022-09-09T03:41:08;15.10;98.70
73576;DHT22;61859;49.204;8.140;2022-09-09T03:43:34;15.30;98.60
73576;DHT22;61859;49.204;8.140;2022-09-09T03:46:00;15.30;98.30
73576;DHT22;61859;49.204;8.140;2022-09-09T03:48:26;15.30;98.60
73576;DHT22;61859;49.204;8.140;2022-09-09T03:50:54;15.20;98.60
73576;DHT22;61859;49.204;8.140;2022-09-09T03:53:22;15.20;98.70
73576;DHT22;61859;49.204;8.140;2022-09-09T03:55:53;15.30;98.50
73576;DHT22;61859;49.204;8.140;2022-09-09T03:58:25;15.30;98.30
73576;DHT22;61859;49.204;8.140;2022-09-09T04:03:25;15.30;98.20
73576;DHT22;61859;49.204;8.140;2022-09-09T04:05:51;15.30;98.10
73576;DHT22;61859;49.204;8.140;2022-09-09T04:08:18;15.30;98.10
73576;DHT22;61859;49.204;8.140;2022-09-09T04:10:45;15.30;98.30
73576;DHT22;61859;49.204;8.140;2022-09-09T04:13:12;15.30;98.20
73576;DHT22;61859;49.204;8.140;2022-09-09T04:15:40;15.40;98.00
73576;DHT22;61859;49.204;8.140;2022-09-09T04:18:06;15.30;98.10
73576;DHT22;61859;49.204;8.140;2022-09-09T04:20:32;15.30;98.50
73576;DHT22;61859;49.204;8.140;2022-09-09T04:22:58;15.30;98.50
73576;DHT22;61859;49.204;8.140;2022-09-09T04:25:23;15.30;98.50
73576;DHT22;61859;49.204;8.140;2022-09-09T04:27:54;15.30;97.90
73576;DHT22;61859;49.204;8.140;2022-09-09T04:30:20;15.40;98.00
73576;DHT22;61859;49.204;8.140;2022-09-09T04:32:46;15.40;97.40
73576;DHT22;61859;49.204;8.140;2022-09-09T04:35:12;15.40;98.00
73576;DHT22;61859;49.204;8.140;2022-09-09T04:37:37;15.40;97.70
73576;DHT22;61859;49.204;8.140;2022-09-09T04:40:03;15.40;97.20
73576;DHT22;61859;49.204;8.140;2022-09-09T04:42:29;15.40;96.90
73576;DHT22;61859;49.204;8.140;2022-09-09T04:44:54;15.40;97.50
73576;DHT22;61859;49.204;8.140;2022-09-09T04:47:20;15.40;96.90
73576;DHT22;61859;49.204;8.140;2022-09-09T04:49:45;15.40;97.50
73576;DHT22;61859;49.204;8.140;2022-09-09T04:52:11;15.40;97.60
73576;DHT22;61859;49.204;8.140;2022-09-09T04:54:37;15.30;97.70
73576;DHT22;61859;49.204;8.140;2022-09-09T04:57:02;15.30;97.80
73576;DHT22;61859;49.204;8.140;2022-09-09T04:59:28;15.30;97.80
73576;DHT22;61859;49.204;8.140;2022-09-09T05:01:54;15.30;98.00
73576;DHT22;61859;49.204;8.140;2022-09-09T05:04:20;15.30;98.00
73576;DHT22;61859;49.204;8.140;2022-09-09T05:06:46;15.40;98.20
73576;DHT22;61859;49.204;8.140;2022-09-09T05:09:11;15.30;98.10
73576;DHT22;61859;49.204;8.140;2022-09-09T05:11:37;15.30;98.10
73576;DHT22;61859;49.204;8.140;2022-09-09T05:14:03;15.30;98.10
73576;DHT22;61859;49.204;8.140;2022-09-09T05:16:29;15.30;98.00
73576;DHT22;61859;49.204;8.140;2022-09-09T05:18:55;15.30;97.80
73576;DHT22;61859;49.204;8.140;2022-09-09T05:21:23;15.30;98.20
73576;DHT22;61859;49.204;8.140;2022-09-09T05:23:49;15.20;98.30
73576;DHT22;61859;49.204;8.140;2022-09-09T05:26:18;15.30;98.50
73576;DHT22;61859;49.204;8.140;2022-09-09T05:28:44;15.20;98.60
73576;DHT22;61859;49.204;8.140;2022-09-09T05:31:11;15.20;98.60
73576;DHT22;61859;49.204;8.140;2022-09-09T05:33:39;15.20;98.60
73576;DHT22;61859;49.204;8.140;2022-09-09T05:36:10;15.20;98.60
73576;DHT22;61859;49.204;8.140;2022-09-09T05:38:38;15.10;98.70
73576;DHT22;61859;49.204;8.140;2022-09-09T05:41:05;15.20;98.40
73576;DHT22;61859;49.204;8.140;2022-09-09T05:43:30;15.30;98.60
73576;DHT22;61859;49.204;8.140;2022-09-09T05:46:10;15.30;98.50
73576;DHT22;61859;49.204;8.140;2022-09-09T05:48:37;15.30;98.40
73576;DHT22;61859;49.204;8.140;2022-09-09T05:51:04;15.30;98.60
73576;DHT22;61859;49.204;8.140;2022-09-09T05:53:30;15.30;98.90
73576;DHT22;61859;49.204;8.140;2022-09-09T05:56:05;15.40;98.50
73576;DHT22;61859;49.204;8.140;2022-09-09T05:58:32;15.50;98.00
73576;DHT22;61859;49.204;8.140;2022-09-09T06:01:06;15.50;97.60
73576;DHT22;61859;49.204;8.140;2022-09-09T06:03:36;15.70;97.20
73576;DHT22;61859;49.204;8.140;2022-09-09T06:06:10;15.70;96.70
73576;DHT22;61859;49.204;8.140;2022-09-09T06:08:38;15.70;96.70
73576;DHT22;61859;49.204;8.140;2022-09-09T06:11:12;15.80;96.60
73576;DHT22;61859;49.204;8.140;2022-09-09T06:13:38;15.80;96.00
73576;DHT22;61859;49.204;8.140;2022-09-09T06:16:15;15.80;96.10
73576;DHT22;61859;49.204;8.140;2022-09-09T06:18:41;15.70;96.30
73576;DHT22;61859;49.204;8.140;2022-09-09T06:21:16;15.80;96.20
73576;DHT22;61859;49.204;8.140;2022-09-09T06:23:41;15.90;96.30
73576;DHT22;61859;49.204;8.140;2022-09-09T06:26:11;15.70;96.20
73576;DHT22;61859;49.204;8.140;2022-09-09T06:28:37;15.90;96.70
73576;DHT22;61859;49.204;8.140;2022-09-09T06:31:08;15.90;96.40
73576;DHT22;61859;49.204;8.140;2022-09-09T06:33:36;15.90;96.10
73576;DHT22;61859;49.204;8.140;2022-09-09T06:36:04;15.90;95.30
73576;DHT22;61859;49.204;8.140;2022-09-09T06:38:30;16.00;95.50
73576;DHT22;61859;49.204;8.140;2022-09-09T06:40:57;16.00;96.20
73576;DHT22;61859;49.204;8.140;2022-09-09T06:43:24;16.30;96.10
73576;DHT22;61859;49.204;8.140;2022-09-09T06:46:01;16.50;94.90
73576;DHT22;61859;49.204;8.140;2022-09-09T06:48:28;16.70;93.40
73576;DHT22;61859;49.204;8.140;2022-09-09T06:51:08;16.70;93.90
73576;DHT22;61859;49.204;8.140;2022-09-09T06:53:35;16.70;93.30
73576;DHT22;61859;49.204;8.140;2022-09-09T06:58:42;16.80;92.40
73576;DHT22;61859;49.204;8.140;2022-09-09T07:01:11;16.90;92.70
73576;DHT22;61859;49.204;8.140;2022-09-09T07:03:38;16.90;92.30
73576;DHT22;61859;49.204;8.140;2022-09-09T07:06:04;17.00;91.20
73576;DHT22;61859;49.204;8.140;2022-09-09T07:08:30;17.10;91.50
73576;DHT22;61859;49.204;8.140;2022-09-09T07:11:02;17.20;90.60
73576;DHT22;61859;49.204;8.140;2022-09-09T07:13:30;17.40;90.40
73576;DHT22;61859;49.204;8.140;2022-09-09T07:16:10;17.40;89.30
73576;DHT22;61859;49.204;8.140;2022-09-09T07:18:36;17.50;89.40
73576;DHT22;61859;49.204;8.140;2022-09-09T07:21:02;17.50;89.30
73576;DHT22;61859;49.204;8.140;2022-09-09T07:23:29;17.60;88.50
73576;DHT22;61859;49.204;8.140;2022-09-09T07:25:56;17.70;88.00
73576;DHT22;61859;49.204;8.140;2022-09-09T07:28:23;17.80;88.00
73576;DHT22;61859;49.204;8.140;2022-09-09T07:30:56;18.10;87.30
73576;DHT22;61859;49.204;8.140;2022-09-09T07:33:23;18.50;85.50
73576;DHT22;61859;49.204;8.140;2022-09-09T07:35:49;18.50;85.50
73576;DHT22;61859;49.204;8.140;2022-09-09T07:38:15;18.30;85.00
73576;DHT22;61859;49.204;8.140;2022-09-09T07:40:40;18.40;85.80
73576;DHT22;61859;49.204;8.140;2022-09-09T07:43:06;18.40;84.50
73576;DHT22;61859;49.204;8.140;2022-09-09T07:45:33;18.70;84.90
73576;DHT22;61859;49.204;8.140;2022-09-09T07:47:59;19.10;82.50
73576;DHT22;61859;49.204;8.140;2022-09-09T07:50:25;19.40;82.40
73576;DHT22;61859;49.204;8.140;2022-09-09T07:52:52;19.60;81.80
73576;DHT22;61859;49.204;8.140;2022-09-09T07:55:19;20.00;80.80
73576;DHT22;61859;49.204;8.140;2022-09-09T08:01:35;19.90;79.90
73576;DHT22;61859;49.204;8.140;2022-09-09T08:04:07;19.60;80.70
73576;DHT22;61859;49.204;8.140;2022-09-09T08:06:41;19.40;81.70
73576;DHT22;61859;49.204;8.140;2022-09-09T08:09:08;19.20;82.10
73576;DHT22;61859;49.204;8.140;2022-09-09T08:11:35;19.10;83.00
73576;DHT22;61859;49.204;8.140;2022-09-09T08:14:02;19.10;83.80
73576;DHT22;61859;49.204;8.140;2022-09-09T08:16:30;19.30;83.20
73576;DHT22;61859;49.204;8.140;2022-09-09T08:18:56;19.50;82.70
73576;DHT22;61859;49.204;8.140;2022-09-09T08:21:28;19.90;81.00
73576;DHT22;61859;49.204;8.140;2022-09-09T08:23:55;20.20;81.60
73576;DHT22;61859;49.204;8.140;2022-09-09T08:26:23;20.70;79.40
73576;DHT22;61859;49.204;8.140;2022-09-09T08:28:50;20.80;79.00
73576;DHT22;61859;49.204;8.140;2022-09-09T08:31:28;21.00;77.10
73576;DHT22;61859;49.204;8.140;2022-09-09T08:33:55;21.10;77.00
73576;DHT22;61859;49.204;8.140;2022-09-09T08:36:26;21.50;77.40
73576;DHT22;61859;49.204;8.140;2022-09-09T08:38:53;21.60;74.60
73576;DHT22;61859;49.204;8.140;2022-09-09T08:44:01;21.50;74.90
73576;DHT22;61859;49.204;8.140;2022-09-09T08:49:10;21.70;75.50
73576;DHT22;61859;49.204;8.140;2022-09-09T08:51:40;21.80;74.50
73576;DHT22;61859;49.204;8.140;2022-09-09T08:54:09;21.90;71.80
73576;DHT22;61859;49.204;8.140;2022-09-09T08:56:35;21.90;73.30
73576;DHT22;61859;49.204;8.140;2022-09-09T08:59:02;21.90;73.00
73576;DHT22;61859;49.204;8.140;2022-09-09T09:02:00;22.10;72.90
73576;DHT22;61859;49.204;8.140;2022-09-09T09:07:24;22.50;68.40
73576;DHT22;61859;49.204;8.140;2022-09-09T09:12:52;21.80;72.00
73576;DHT22;61859;49.204;8.140;2022-09-09T09:15:24;20.90;78.20
73576;DHT22;61859;49.204;8.140;2022-09-09T09:17:50;20.00;82.40
73576;DHT22;61859;49.204;8.140;2022-09-09T09:20:20;19.40;84.60
73576;DHT22;61859;49.204;8.140;2022-09-09T09:22:50;18.70;86.70
73576;DHT22;61859;49.204;8.140;2022-09-09T09:25:19;18.10;89.30
73576;DHT22;61859;49.204;8.140;2022-09-09T09:28:00;17.60;91.40
73576;DHT22;61859;49.204;8.140;2022-09-09T09:30:31;17.20;93.20
73576;DHT22;61859;49.204;8.140;2022-09-09T09:35:36;17.30;95.00
73576;DHT22;61859;49.204;8.140;2022-09-09T09:38:20;17.40;96.10
73576;DHT22;61859;49.204;8.140;2022-09-09T09:40:52;17.70;95.50
73576;DHT22;61859;49.204;8.140;2022-09-09T09:43:36;18.20;94.40
73576;DHT22;61859;49.204;8.140;2022-09-09T09:46:17;18.60;93.40
73576;DHT22;61859;49.204;8.140;2022-09-09T09:48:44;19.00;93.90
73576;DHT22;61859;49.204;8.140;2022-09-09T09:51:14;19.50;89.20
73576;DHT22;61859;49.204;8.140;2022-09-09T09:53:42;19.60;86.80
73576;DHT22;61859;49.204;8.140;2022-09-09T09:56:11;19.90;86.00
73576;DHT22;61859;49.204;8.140;2022-09-09T10:01:21;20.30;86.10
73576;DHT22;61859;49.204;8.140;2022-09-09T10:03:55;20.60;82.50
73576;DHT22;61859;49.204;8.140;2022-09-09T10:06:37;20.50;82.00
73576;DHT22;61859;49.204;8.140;2022-09-09T10:09:29;20.20;82.10
73576;DHT22;61859;49.204;8.140;2022-09-09T10:12:20;19.70;82.50
73576;DHT22;61859;49.204;8.140;2022-09-09T10:15:02;19.30;84.90
73576;DHT22;61859;49.204;8.140;2022-09-09T10:20:52;19.60;83.90
73576;DHT22;61859;49.204;8.140;2022-09-09T10:26:28;19.40;84.10
73576;DHT22;61859;49.204;8.140;2022-09-09T10:31:57;19.10;84.60
73576;DHT22;61859;49.204;8.140;2022-09-09T10:34:46;19.00;85.50
73576;DHT22;61859;49.204;8.140;2022-09-09T10:40:18;18.90;86.00
73576;DHT22;61859;49.204;8.140;2022-09-09T10:42:47;18.90;87.10
73576;DHT22;61859;49.204;8.140;2022-09-09T10:45:26;19.10;85.40
73576;DHT22;61859;49.204;8.140;2022-09-09T10:50:50;19.30;86.80
73576;DHT22;61859;49.204;8.140;2022-09-09T10:53:24;19.50;84.60
73576;DHT22;61859;49.204;8.140;2022-09-09T10:55:59;19.80;82.60
73576;DHT22;61859;49.204;8.140;2022-09-09T10:58:58;20.40;82.10
73576;DHT22;61859;49.204;8.140;2022-09-09T11:01:32;20.60;79.50
73576;DHT22;61859;49.204;8.140;2022-09-09T11:04:05;20.70;76.50
73576;DHT22;61859;49.204;8.140;2022-09-09T11:06:41;20.60;76.60
73576;DHT22;61859;49.204;8.140;2022-09-09T11:09:16;20.60;79.00
73576;DHT22;61859;49.204;8.140;2022-09-09T11:11:54;20.80;78.70
73576;DHT22;61859;49.204;8.140;2022-09-09T11:17:28;21.60;74.50
73576;DHT22;61859;49.204;8.140;2022-09-09T11:19:55;22.00;71.10
73576;DHT22;61859;49.204;8.140;2022-09-09T11:25:15;22.50;69.50
73576;DHT22;61859;49.204;8.140;2022-09-09T11:30:36;22.10;69.60
73576;DHT22;61859;49.204;8.140;2022-09-09T11:41:01;20.70;74.90
73576;DHT22;61859;49.204;8.140;2022-09-09T11:43:31;20.10;78.30
73576;DHT22;61859;49.204;8.140;2022-09-09T11:46:00;19.90;84.80
73576;DHT22;61859;49.204;8.140;2022-09-09T11:49:00;19.70;82.40
73576;DHT22;61859;49.204;8.140;2022-09-09T11:51:28;19.80;87.10
73576;DHT22;61859;49.204;8.140;2022-09-09T11:53:58;20.00;83.50
73576;DHT22;61859;49.204;8.140;2022-09-09T11:56:42;20.10;83.30
73576;DHT22;61859;49.204;8.140;2022-09-09T11:59:27;20.10;82.90
73576;DHT22;61859;49.204;8.140;2022-09-09T12:02:22;20.30;78.80
73576;DHT22;61859;49.204;8.140;2022-09-09T12:05:08;20.70;81.30
73576;DHT22;61859;49.204;8.140;2022-09-09T12:07:51;21.20;79.40
73576;DHT22;61859;49.204;8.140;2022-09-09T12:12:44;22.20;73.10
73576;DHT22;61859;49.204;8.140;2022-09-09T12:17:46;22.20;74.60
73576;DHT22;61859;49.204;8.140;2022-09-09T12:23:17;21.80;72.70
73576;DHT22;61859;49.204;8.140;2022-09-09T12:29:23;21.00;75.50
73576;DHT22;61859;49.204;8.140;2022-09-09T12:31:53;20.60;75.10
73576;DHT22;61859;49.204;8.140;2022-09-09T12:36:55;19.90;81.20
73576;DHT22;61859;49.204;8.140;2022-09-09T12:39:29;19.50;83.70
73576;DHT22;61859;49.204;8.140;2022-09-09T12:41:56;19.10;83.80
73576;DHT22;61859;49.204;8.140;2022-09-09T12:44:24;18.70;83.70
73576;DHT22;61859;49.204;8.140;2022-09-09T12:46:50;18.30;85.10
73576;DHT22;61859;49.204;8.140;2022-09-09T12:49:30;17.60;87.90
73576;DHT22;61859;49.204;8.140;2022-09-09T12:52:23;17.30;88.60
73576;DHT22;61859;49.204;8.140;2022-09-09T12:54:50;17.00;89.40
73576;DHT22;61859;49.204;8.140;2022-09-09T12:57:19;16.80;91.30
73576;DHT22;61859;49.204;8.140;2022-09-09T12:59:47;16.80;91.10
73576;DHT22;61859;49.204;8.140;2022-09-09T13:02:22;16.90;90.90
73576;DHT22;61859;49.204;8.140;2022-09-09T13:04:48;17.00;90.60
73576;DHT22;61859;49.204;8.140;2022-09-09T13:07:16;17.20;90.50
73576;DHT22;61859;49.204;8.140;2022-09-09T13:09:43;17.60;90.50
73576;DHT22;61859;49.204;8.140;2022-09-09T13:12:18;17.70;89.50
73576;DHT22;61859;49.204;8.140;2022-09-09T13:14:47;18.00;87.40
73576;DHT22;61859;49.204;8.140;2022-09-09T13:17:24;18.20;85.60
73576;DHT22;61859;49.204;8.140;2022-09-09T13:19:51;18.60;88.20
73576;DHT22;61859;49.204;8.140;2022-09-09T13:27:40;19.80;83.00
73576;DHT22;61859;49.204;8.140;2022-09-09T13:30:29;20.50;82.20
73576;DHT22;61859;49.204;8.140;2022-09-09T13:33:03;21.50;77.90
73576;DHT22;61859;49.204;8.140;2022-09-09T13:35:29;22.00;73.80
73576;DHT22;61859;49.204;8.140;2022-09-09T13:37:55;22.40;68.00
73576;DHT22;61859;49.204;8.140;2022-09-09T13:40:22;22.10;70.50
73576;DHT22;61859;49.204;8.140;2022-09-09T13:42:53;21.70;71.60
73576;DHT22;61859;49.204;8.140;2022-09-09T13:45:23;21.70;74.10
73576;DHT22;61859;49.204;8.140;2022-09-09T13:47:52;22.10;72.00
73576;DHT22;61859;49.204;8.140;2022-09-09T13:50:26;22.10;71.50
73576;DHT22;61859;49.204;8.140;2022-09-09T13:52:54;22.00;72.10
73576;DHT22;61859;49.204;8.140;2022-09-09T13:55:22;22.10;69.90
73576;DHT22;61859;49.204;8.140;2022-09-09T13:57:56;22.00;66.40
73576;DHT22;61859;49.204;8.140;2022-09-09T14:00:23;21.90;66.30
73576;DHT22;61859;49.204;8.140;2022-09-09T14:02:52;21.70;68.20
73576;DHT22;61859;49.204;8.140;2022-09-09T14:05:20;21.60;69.80
73576;DHT22;61859;49.204;8.140;2022-09-09T14:07:47;21.80;68.70
73576;DHT22;61859;49.204;8.140;2022-09-09T14:10:13;22.20;69.80
73576;DHT22;61859;49.204;8.140;2022-09-09T14:12:39;22.60;64.30
73576;DHT22;61859;49.204;8.140;2022-09-09T14:15:06;23.00;64.80
73576;DHT22;61859;49.204;8.140;2022-09-09T14:17:32;22.90;63.70
73576;DHT22;61859;49.204;8.140;2022-09-09T14:19:58;22.60;64.80
73576;DHT22;61859;49.204;8.140;2022-09-09T14:22:24;22.20;66.10
73576;DHT22;61859;49.204;8.140;2022-09-09T14:24:50;21.90;67.10
73576;DHT22;61859;49.204;8.140;2022-09-09T14:27:16;21.40;67.80
73576;DHT22;61859;49.204;8.140;2022-09-09T14:29:42;21.30;71.10
73576;DHT22;61859;49.204;8.140;2022-09-09T14:32:09;21.00;72.80
73576;DHT22;61859;49.204;8.140;2022-09-09T14:34:35;20.80;72.60
73576;DHT22;61859;49.204;8.140;2022-09-09T14:37:01;20.80;74.20
73576;DHT22;61859;49.204;8.140;2022-09-09T14:39:26;20.80;74.40
73576;DHT22;61859;49.204;8.140;2022-09-09T14:41:52;20.70;74.20
73576;DHT22;61859;49.204;8.140;2022-09-09T14:44:17;20.60;74.80
73576;DHT22;61859;49.204;8.140;2022-09-09T14:46:43;20.60;75.50
73576;DHT22;61859;49.204;8.140;2022-09-09T14:49:09;20.70;74.00
73576;DHT22;61859;49.204;8.140;2022-09-09T14:51:36;20.60;73.20
73576;DHT22;61859;49.204;8.140;2022-09-09T14:54:02;20.70;71.00
73576;DHT22;61859;49.204;8.140;2022-09-09T14:56:30;20.70;69.30
73576;DHT22;61859;49.204;8.140;2022-09-09T14:58:58;21.40;66.40
73576;DHT22;61859;49.204;8.140;2022-09-09T15:01:24;21.80;64.90
73576;DHT22;61859;49.204;8.140;2022-09-09T15:04:00;21.90;64.70
73576;DHT22;61859;49.204;8.140;2022-09-09T15:06:31;21.70;64.00
73576;DHT22;61859;49.204;8.140;2022-09-09T15:08:58;21.50;64.70
73576;DHT22;61859;49.204;8.140;2022-09-09T15:11:26;21.60;66.50
73576;DHT22;61859;49.204;8.140;2022-09-09T15:13:53;22.00;64.00
73576;DHT22;61859;49.204;8.140;2022-09-09T15:16:21;22.50;62.30
73576;DHT22;61859;49.204;8.140;2022-09-09T15:18:51;22.70;62.50
73576;DHT22;61859;49.204;8.140;2022-09-09T15:21:18;23.10;61.00
73576;DHT22;61859;49.204;8.140;2022-09-09T15:23:44;23.30;59.50
73576;DHT22;61859;49.204;8.140;2022-09-09T15:26:11;23.60;58.90
73576;DHT22;61859;49.204;8.140;2022-09-09T15:28:39;23.70;60.60
73576;DHT22;61859;49.204;8.140;2022-09-09T15:31:13;23.80;58.70
73576;DHT22;61859;49.204;8.140;2022-09-09T15:33:40;23.80;60.90
73576;DHT22;61859;49.204;8.140;2022-09-09T15:36:33;23.70;58.70
73576;DHT22;61859;49.204;8.140;2022-09-09T15:38:59;23.20;59.90
73576;DHT22;61859;49.204;8.140;2022-09-09T15:41:26;22.80;60.60
73576;DHT22;61859;49.204;8.140;2022-09-09T15:43:54;22.70;61.90
73576;DHT22;61859;49.204;8.140;2022-09-09T15:46:24;22.80;63.70
73576;DHT22;61859;49.204;8.140;2022-09-09T15:48:51;22.80;63.90
73576;DHT22;61859;49.204;8.140;2022-09-09T15:51:17;22.90;62.80
73576;DHT22;61859;49.204;8.140;2022-09-09T15:53:44;22.70;62.60
73576;DHT22;61859;49.204;8.140;2022-09-09T15:56:10;22.50;63.30
73576;DHT22;61859;49.204;8.140;2022-09-09T15:58:36;22.30;63.40
73576;DHT22;61859;49.204;8.140;2022-09-09T16:01:06;21.80;63.80
73576;DHT22;61859;49.204;8.140;2022-09-09T16:03:37;21.50;65.30
73576;DHT22;61859;49.204;8.140;2022-09-09T16:06:03;21.20;65.00
73576;DHT22;61859;49.204;8.140;2022-09-09T16:08:34;20.90;65.90
73576;DHT22;61859;49.204;8.140;2022-09-09T16:11:11;20.70;67.00
73576;DHT22;61859;49.204;8.140;2022-09-09T16:13:38;20.50;67.80
73576;DHT22;61859;49.204;8.140;2022-09-09T16:16:05;20.30;68.00
73576;DHT22;61859;49.204;8.140;2022-09-09T16:18:39;20.30;69.40
73576;DHT22;61859;49.204;8.140;2022-09-09T16:21:05;20.20;70.30
73576;DHT22;61859;49.204;8.140;2022-09-09T16:23:32;20.00;70.00
73576;DHT22;61859;49.204;8.140;2022-09-09T16:25:58;20.10;70.50
73576;DHT22;61859;49.204;8.140;2022-09-09T16:28:23;20.40;72.20
73576;DHT22;61859;49.204;8.140;2022-09-09T16:30:49;20.70;73.70
73576;DHT22;61859;49.204;8.140;2022-09-09T16:33:15;21.30;74.30
73576;DHT22;61859;49.204;8.140;2022-09-09T16:35:41;21.50;69.60
73576;DHT22;61859;49.204;8.140;2022-09-09T16:38:07;21.30;69.80
73576;DHT22;61859;49.204;8.140;2022-09-09T16:40:36;20.90;71.90
73576;DHT22;61859;49.204;8.140;2022-09-09T16:43:02;20.60;73.40
73576;DHT22;61859;49.204;8.140;2022-09-09T16:45:28;20.30;72.10
73576;DHT22;61859;49.204;8.140;2022-09-09T16:47:53;20.10;72.70
73576;DHT22;61859;49.204;8.140;2022-09-09T16:50:19;19.90;72.70
73576;DHT22;61859;49.204;8.140;2022-09-09T16:52:45;19.70;73.90
73576;DHT22;61859;49.204;8.140;2022-09-09T16:55:10;19.60;75.10
73576;DHT22;61859;49.204;8.140;2022-09-09T16:57:36;19.50;75.90
73576;DHT22;61859;49.204;8.140;2022-09-09T17:00:03;19.50;76.70
73576;DHT22;61859;49.204;8.140;2022-09-09T17:02:31;19.30;77.40
73576;DHT22;61859;49.204;8.140;2022-09-09T17:04:56;19.20;77.40
73576;DHT22;61859;49.204;8.140;2022-09-09T17:07:22;19.10;77.20
73576;DHT22;61859;49.204;8.140;2022-09-09T17:09:48;19.00;78.30
73576;DHT22;61859;49.204;8.140;2022-09-09T17:12:13;18.90;79.20
73576;DHT22;61859;49.204;8.140;2022-09-09T17:14:39;18.80;80.00
73576;DHT22;61859;49.204;8.140;2022-09-09T17:17:04;18.80;80.90
73576;DHT22;61859;49.204;8.140;2022-09-09T17:19:31;18.60;81.30
73576;DHT22;61859;49.204;8.140;2022-09-09T17:21:56;18.60;82.20
73576;DHT22;61859;49.204;8.140;2022-09-09T17:24:24;18.50;82.60
73576;DHT22;61859;49.204;8.140;2022-09-09T17:26:52;18.40;83.50
73576;DHT22;61859;49.204;8.140;2022-09-09T17:29:18;18.20;84.40
73576;DHT22;61859;49.204;8.140;2022-09-09T17:31:43;18.20;84.60